createdAt,value
2018-04-23T00:02:07.175Z,99649.63
2018-04-23T00:04:34.759Z,99649.55
2018-04-23T00:07:02.340Z,99653.28
2018-04-23T00:09:30.149Z,99651.73
2018-04-23T00:11:57.707Z,99658.05
2018-04-23T00:14:25.479Z,99654.89
2018-04-23T00:16:53.087Z,99661.03
2018-04-23T00:19:20.808Z,99655.30
2018-04-23T00:21:48.380Z,99660.51
2018-04-23T00:24:16.108Z,99657.42
2018-04-23T00:26:43.686Z,99659.47
2018-04-23T00:29:11.243Z,99657.02
2018-04-23T00:31:38.822Z,99658.20
2018-04-23T00:34:06.380Z,99664.16
2018-04-23T00:36:33.945Z,99664.78
2018-04-23T00:39:01.701Z,99667.61
2018-04-23T00:41:29.282Z,99670.80
2018-04-23T00:43:56.859Z,99663.48
2018-04-23T00:46:24.542Z,99670.80
2018-04-23T00:48:52.130Z,99660.31
2018-04-23T00:51:19.813Z,99665.78
2018-04-23T00:53:47.431Z,99660.31
2018-04-23T00:56:15.103Z,99662.39
2018-04-23T00:58:42.663Z,99663.59
2018-04-23T01:01:10.342Z,99663.63
2018-04-23T01:03:37.903Z,99671.56
2018-04-23T01:06:05.577Z,99666.41
2018-04-23T01:08:33.184Z,99661.69
2018-04-23T01:11:00.783Z,99662.42
2018-04-23T01:13:28.351Z,99663.13
2018-04-23T01:15:55.989Z,99671.79
2018-04-23T01:18:23.679Z,99672.33
2018-04-23T01:20:51.527Z,99669.36
2018-04-23T01:23:19.116Z,99671.22
2018-04-23T01:25:46.665Z,99675.44
2018-04-23T01:28:14.243Z,99671.10
2018-04-23T01:30:41.838Z,99678.41
2018-04-23T01:33:09.450Z,99681.31
2018-04-23T01:35:37.012Z,99677.09
2018-04-23T01:38:04.653Z,99675.58
2018-04-23T01:40:32.250Z,99674.73
2018-04-23T01:42:59.879Z,99665.48
2018-04-23T01:45:27.489Z,99670.09
2018-04-23T01:47:55.205Z,99667.69
2018-04-23T01:50:33.481Z,99665.64
2018-04-23T01:53:01.145Z,99669.32
2018-04-23T01:55:28.720Z,99668.02
2018-04-23T01:57:56.324Z,99668.17
2018-04-23T02:00:23.894Z,99667.06
2018-04-23T02:02:51.490Z,99669.22
2018-04-23T02:05:19.088Z,99672.86
2018-04-23T02:07:46.730Z,99672.45
2018-04-23T02:10:14.297Z,99678.40
2018-04-23T02:12:41.906Z,99674.38
2018-04-23T02:15:09.472Z,99676.16
2018-04-23T02:17:37.042Z,99678.98
2018-04-23T02:20:04.634Z,99686.25
2018-04-23T02:22:32.199Z,99682.16
2018-04-23T02:24:59.752Z,99687.34
2018-04-23T02:27:27.428Z,99679.97
2018-04-23T02:29:55.016Z,99679.92
2018-04-23T02:32:22.750Z,99683.25
2018-04-23T02:34:50.370Z,99681.92
2018-04-23T02:37:17.932Z,99684.61
2018-04-23T02:39:45.575Z,99684.09
2018-04-23T02:42:13.415Z,99684.21
2018-04-23T02:44:40.974Z,99692.22
2018-04-23T02:47:08.725Z,99689.66
2018-04-23T02:49:36.407Z,99688.92
2018-04-23T02:52:03.988Z,99687.28
2018-04-23T02:54:31.551Z,99685.43
2018-04-23T02:56:59.155Z,99685.02
2018-04-23T02:59:26.729Z,99682.74
2018-04-23T03:01:54.289Z,99688.89
2018-04-23T03:04:21.946Z,99688.05
2018-04-23T03:06:49.496Z,99680.42
2018-04-23T03:09:17.066Z,99682.15
2018-04-23T03:11:44.671Z,99686.03
2018-04-23T03:14:12.235Z,99681.29
2018-04-23T03:16:39.837Z,99684.65
2018-04-23T03:19:07.714Z,99689.59
2018-04-23T03:21:35.378Z,99686.07
2018-04-23T03:24:03.035Z,99689.28
2018-04-23T03:26:30.635Z,99691.14
2018-04-23T03:28:58.218Z,99698.16
2018-04-23T03:31:25.829Z,99696.84
2018-04-23T03:33:53.508Z,99695.27
2018-04-23T03:36:21.168Z,99696.84
2018-04-23T03:38:48.830Z,99701.59
2018-04-23T03:41:16.455Z,99704.56
2018-04-23T03:43:44.030Z,99708.88
2018-04-23T03:46:11.798Z,99706.87
2018-04-23T03:48:39.422Z,99706.66
2018-04-23T03:51:06.984Z,99710.56
2018-04-23T03:53:34.797Z,99712.16
2018-04-23T03:56:02.409Z,99711.63
2018-04-23T03:58:29.996Z,99711.30
2018-04-23T04:00:57.583Z,99711.67
2018-04-23T04:03:25.246Z,99710.79
2018-04-23T04:05:52.906Z,99720.41
2018-04-23T04:08:20.483Z,99719.42
2018-04-23T04:10:48.219Z,99718.73
2018-04-23T04:13:27.449Z,99722.13
2018-04-23T04:16:06.904Z,99714.20
2018-04-23T04:18:45.614Z,99720.66
2018-04-23T04:21:13.278Z,99724.66
2018-04-23T04:23:40.865Z,99726.05
2018-04-23T04:26:09.659Z,99721.43
2018-04-23T04:28:37.284Z,99721.89
2018-04-23T04:31:04.891Z,99727.48
2018-04-23T04:33:32.481Z,99729.23
2018-04-23T04:36:00.110Z,99727.72
2018-04-23T04:38:27.692Z,99728.22
2018-04-23T04:40:55.273Z,99728.20
2018-04-23T04:43:23.069Z,99735.17
2018-04-23T04:45:50.676Z,99731.89
2018-04-23T04:48:18.258Z,99734.40
2018-04-23T04:50:45.885Z,99729.27
2018-04-23T04:53:13.540Z,99733.80
2018-04-23T04:55:41.141Z,99734.83
2018-04-23T04:58:08.753Z,99738.53
2018-04-23T05:00:36.340Z,99740.56
2018-04-23T05:03:03.932Z,99736.38
2018-04-23T05:05:31.559Z,99736.96
2018-04-23T05:07:59.141Z,99739.56
2018-04-23T05:10:26.770Z,99742.48
2018-04-23T05:12:54.387Z,99739.12
2018-04-23T05:15:21.976Z,99741.09
2018-04-23T05:17:49.546Z,99745.43
2018-04-23T05:20:17.165Z,99742.62
2018-04-23T05:22:44.756Z,99746.73
2018-04-23T05:25:12.348Z,99740.15
2018-04-23T05:27:39.959Z,99751.58
2018-04-23T05:30:07.531Z,99752.36
2018-04-23T05:32:35.123Z,99753.31
2018-04-23T05:35:02.748Z,99752.64
2018-04-23T05:37:30.332Z,99748.17
2018-04-23T05:39:58.275Z,99757.08
2018-04-23T05:42:25.898Z,99761.90
2018-04-23T05:44:53.473Z,99757.09
2018-04-23T05:47:21.263Z,99762.73
2018-04-23T05:49:49.115Z,99758.56
2018-04-23T05:52:16.755Z,99761.51
2018-04-23T05:54:44.439Z,99761.50
2018-04-23T05:57:12.118Z,99759.03
2018-04-23T05:59:39.769Z,99755.89
2018-04-23T06:02:07.440Z,99748.50
2018-04-23T06:04:35.087Z,99741.69
2018-04-23T06:07:02.773Z,99733.25
2018-04-23T06:09:30.367Z,99739.65
2018-04-23T06:11:58.075Z,99732.73
2018-04-23T06:14:25.690Z,99734.41
2018-04-23T06:16:53.276Z,99737.83
2018-04-23T06:19:20.876Z,99742.67
2018-04-23T06:21:48.515Z,99731.89
2018-04-23T06:24:16.092Z,99738.97
2018-04-23T06:26:43.709Z,99734.22
2018-04-23T06:29:11.293Z,99739.23
2018-04-23T06:31:38.868Z,99737.61
2018-04-23T06:34:06.487Z,99743.38
2018-04-23T06:36:34.077Z,99732.39
2018-04-23T06:39:01.683Z,99739.18
2018-04-23T06:41:29.300Z,99739.19
2018-04-23T06:43:56.875Z,99739.80
2018-04-23T06:46:24.448Z,99745.29
2018-04-23T06:48:52.064Z,99745.75
2018-04-23T06:51:19.643Z,99740.98
2018-04-23T06:53:47.221Z,99738.23
2018-04-23T06:56:14.831Z,99741.36
2018-04-23T06:58:42.445Z,99740.91
2018-04-23T07:01:10.022Z,99738.84
2018-04-23T07:03:37.635Z,99738.67
2018-04-23T07:06:05.209Z,99737.20
2018-04-23T07:08:32.789Z,99731.80
2018-04-23T07:11:00.399Z,99740.46
2018-04-23T07:13:27.975Z,99746.05
2018-04-23T07:15:55.553Z,99747.58
2018-04-23T07:18:23.170Z,99746.39
2018-04-23T07:20:50.737Z,99750.22
2018-04-23T07:23:18.362Z,99745.91
2018-04-23T07:25:46.102Z,99746.82
2018-04-23T07:28:13.678Z,99752.81
2018-04-23T07:30:41.262Z,99750.57
2018-04-23T07:33:08.871Z,99746.45
2018-04-23T07:35:36.456Z,99744.20
2018-04-23T07:38:04.051Z,99747.47
2018-04-23T07:40:31.673Z,99750.95
2018-04-23T07:42:59.270Z,99746.62
2018-04-23T07:45:26.847Z,99742.77
2018-04-23T07:47:54.507Z,99743.65
2018-04-23T07:50:22.070Z,99739.98
2018-04-23T07:52:49.652Z,99739.44
2018-04-23T07:55:17.249Z,99738.36
2018-04-23T07:57:44.827Z,99736.73
2018-04-23T08:00:12.416Z,99732.38
2018-04-23T08:02:40.032Z,99731.24
2018-04-23T08:05:07.614Z,99734.83
2018-04-23T08:07:35.192Z,99732.97
2018-04-23T08:10:02.817Z,99733.41
2018-04-23T08:12:30.401Z,99723.31
2018-04-23T08:14:57.989Z,99715.77
2018-04-23T08:17:25.693Z,99712.31
2018-04-23T08:19:53.275Z,99711.86
2018-04-23T08:22:20.857Z,99708.64
2018-04-23T08:24:48.482Z,99709.52
2018-04-23T08:27:16.072Z,99705.53
2018-04-23T08:29:43.651Z,99700.48
2018-04-23T08:32:11.255Z,99702.52
2018-04-23T08:34:38.827Z,99702.84
2018-04-23T08:37:06.408Z,99698.09
2018-04-23T08:39:34.034Z,99695.55
2018-04-23T08:42:01.639Z,99700.15
2018-04-23T08:44:29.219Z,99689.53
2018-04-23T08:46:56.920Z,99697.60
2018-04-23T08:49:24.512Z,99691.16
2018-04-23T08:51:52.095Z,99688.14
2018-04-23T08:54:19.712Z,99684.33
2018-04-23T08:56:47.292Z,99685.75
2018-04-23T08:59:14.874Z,99680.31
2018-04-23T09:01:42.494Z,99683.52
2018-04-23T09:04:10.070Z,99679.75
2018-04-23T09:06:37.648Z,99677.95
2018-04-23T09:09:06.133Z,99677.55
2018-04-23T09:11:33.712Z,99677.36
2018-04-23T09:14:01.287Z,99675.17
2018-04-23T09:16:28.913Z,99667.48
2018-04-23T09:18:56.488Z,99664.23
2018-04-23T09:21:24.099Z,99661.67
2018-04-23T09:23:51.707Z,99661.69
2018-04-23T09:26:19.295Z,99662.63
2018-04-23T09:28:46.875Z,99658.08
2018-04-23T09:31:14.532Z,99653.74
2018-04-23T09:33:42.114Z,99651.76
2018-04-23T09:36:09.701Z,99651.75
2018-04-23T09:38:37.340Z,99650.39
2018-04-23T09:41:04.925Z,99645.00
2018-04-23T09:43:32.491Z,99642.81
2018-04-23T09:46:00.120Z,99639.55
2018-04-23T09:48:27.713Z,99636.88
2018-04-23T09:50:55.321Z,99633.61
2018-04-23T09:53:22.922Z,99632.54
2018-04-23T09:55:50.522Z,99633.04
2018-04-23T09:58:18.381Z,99627.56
2018-04-23T10:00:46.080Z,99625.27
2018-04-23T10:03:13.653Z,99619.84
2018-04-23T10:05:41.242Z,99614.74
2018-04-23T10:08:08.855Z,99608.80
2018-04-23T10:10:36.428Z,99615.81
2018-04-23T10:13:04.075Z,99619.65
2018-04-23T10:15:31.689Z,99626.54
2018-04-23T10:17:59.268Z,99619.61
2018-04-23T10:20:27.043Z,99614.69
2018-04-23T10:22:54.719Z,99609.50
2018-04-23T10:25:22.279Z,99607.05
2018-04-23T10:27:49.851Z,99606.47
2018-04-23T10:30:17.490Z,99606.03
2018-04-23T10:32:45.215Z,99601.86
2018-04-23T10:35:12.843Z,99605.58
2018-04-23T10:37:40.698Z,99605.89
2018-04-23T10:40:08.275Z,99603.09
2018-04-23T10:42:36.024Z,99598.44
2018-04-23T10:45:03.874Z,99607.38
2018-04-23T10:47:31.448Z,99598.23
2018-04-23T10:49:59.020Z,99596.68
2018-04-23T10:52:26.617Z,99595.31
2018-04-23T10:54:54.182Z,99595.63
2018-04-23T10:57:21.824Z,99590.36
2018-04-23T10:59:49.642Z,99598.77
2018-04-23T11:02:17.223Z,99593.23
2018-04-23T11:04:44.981Z,99592.63
2018-04-23T11:07:12.586Z,99594.70
2018-04-23T11:09:40.242Z,99588.19
2018-04-23T11:12:07.764Z,99589.56
2018-04-23T11:14:35.488Z,99590.98
2018-04-23T11:17:03.453Z,99588.97
2018-04-23T11:19:31.158Z,99594.39
2018-04-23T11:24:32.489Z,99582.09
2018-04-23T11:27:00.291Z,99589.47
2018-04-23T11:29:27.925Z,99583.80
2018-04-23T11:31:55.716Z,99582.94
2018-04-23T11:34:23.465Z,99587.33
2018-04-23T11:36:51.061Z,99578.61
2018-04-23T11:39:18.635Z,99577.27
2018-04-23T11:41:46.478Z,99574.84
2018-04-23T11:44:14.061Z,99578.52
2018-04-23T11:46:41.779Z,99573.80
2018-04-23T11:49:09.393Z,99568.84
2018-04-23T11:51:36.985Z,99570.78
2018-04-23T11:54:04.788Z,99565.59
2018-04-23T11:56:32.408Z,99567.23
2018-04-23T11:59:00.106Z,99571.28
2018-04-23T12:01:27.768Z,99568.36
2018-04-23T12:03:55.373Z,99565.36
2018-04-23T12:06:22.957Z,99560.73
2018-04-23T12:08:50.527Z,99562.09
2018-04-23T12:11:18.416Z,99558.87
2018-04-23T12:13:46.077Z,99552.61
2018-04-23T12:16:13.794Z,99547.17
2018-04-23T12:18:41.386Z,99544.84
2018-04-23T12:21:08.965Z,99553.86
2018-04-23T12:23:36.540Z,99550.90
2018-04-23T12:26:04.149Z,99553.09
2018-04-23T12:28:31.719Z,99547.09
2018-04-23T12:30:59.303Z,99550.00
2018-04-23T12:33:26.928Z,99538.34
2018-04-23T12:35:54.505Z,99540.20
2018-04-23T12:38:22.149Z,99534.65
2018-04-23T12:40:49.811Z,99533.84
2018-04-23T12:43:17.383Z,99535.70
2018-04-23T12:45:44.941Z,99535.50
2018-04-23T12:48:12.649Z,99531.62
2018-04-23T12:50:40.232Z,99534.45
2018-04-23T12:53:07.799Z,99524.30
2018-04-23T12:55:35.422Z,99521.20
2018-04-23T12:58:03.000Z,99523.57
2018-04-23T13:00:30.570Z,99526.09
2018-04-23T13:02:58.189Z,99521.89
2018-04-23T13:05:25.769Z,99524.48
2018-04-23T13:07:53.353Z,99518.07
2018-04-23T13:10:20.956Z,99515.76
2018-04-23T13:12:48.533Z,99516.79
2018-04-23T13:15:16.110Z,99516.08
2018-04-23T13:17:43.716Z,99513.66
2018-04-23T13:20:11.301Z,99512.23
2018-04-23T13:22:38.927Z,99517.84
2018-04-23T13:25:06.520Z,99512.90
2018-04-23T13:27:34.075Z,99511.24
2018-04-23T13:30:01.649Z,99509.86
2018-04-23T13:32:29.258Z,99503.05
2018-04-23T13:34:56.826Z,99501.61
2018-04-23T13:37:24.389Z,99508.22
2018-04-23T13:39:52.032Z,99501.19
2018-04-23T13:42:19.602Z,99504.13
2018-04-23T13:44:47.166Z,99510.33
2018-04-23T13:47:14.766Z,99504.13
2018-04-23T13:49:42.314Z,99500.92
2018-04-23T13:52:09.886Z,99498.91
2018-04-23T13:54:37.473Z,99503.86
2018-04-23T13:57:05.149Z,99510.50
2018-04-23T13:59:32.742Z,99502.72
2018-04-23T14:02:00.347Z,99508.37
2018-04-23T14:04:27.911Z,99502.97
2018-04-23T14:06:55.493Z,99496.61
2018-04-23T14:09:23.072Z,99503.08
2018-04-23T14:11:50.627Z,99508.94
2018-04-23T14:14:18.182Z,99495.86
2018-04-23T14:16:45.851Z,99508.11
2018-04-23T14:19:13.420Z,99506.09
2018-04-23T14:21:40.980Z,99498.22
2018-04-23T14:24:08.575Z,99504.10
2018-04-23T14:26:36.134Z,99504.45
2018-04-23T14:29:03.701Z,99498.50
2018-04-23T14:31:31.286Z,99501.74
2018-04-23T14:33:58.859Z,99509.40
2018-04-23T14:36:26.429Z,99507.44
2018-04-23T14:38:54.045Z,99506.59
2018-04-23T14:41:21.638Z,99505.57
2018-04-23T14:43:49.205Z,99500.39
2018-04-23T14:46:16.813Z,99502.75
2018-04-23T14:48:44.387Z,99502.45
2018-04-23T14:51:11.969Z,99499.90
2018-04-23T14:53:39.570Z,99502.20
2018-04-23T14:56:07.148Z,99506.58
2018-04-23T14:58:34.816Z,99498.42
2018-04-23T15:01:02.478Z,99501.34
2018-04-23T15:03:30.077Z,99497.96
2018-04-23T15:05:57.658Z,99501.77
2018-04-23T15:08:25.303Z,99501.94
2018-04-23T15:10:52.874Z,99506.53
2018-04-23T15:13:20.438Z,99503.64
2018-04-23T15:15:48.051Z,99501.53
2018-04-23T15:18:15.615Z,99500.89
2018-04-23T15:20:43.190Z,99499.80
2018-04-23T15:23:10.816Z,99500.88
2018-04-23T15:25:38.406Z,99500.45
2018-04-23T15:28:05.981Z,99494.05
2018-04-23T15:30:33.595Z,99502.21
2018-04-23T15:33:01.187Z,99493.48
2018-04-23T15:35:28.766Z,99492.05
2018-04-23T15:37:56.372Z,99496.91
2018-04-23T15:40:23.960Z,99502.61
2018-04-23T15:42:51.545Z,99497.81
2018-04-23T15:45:19.201Z,99496.95
2018-04-23T15:47:46.779Z,99501.82
2018-04-23T15:50:14.356Z,99502.64
2018-04-23T15:52:41.982Z,99500.81
2018-04-23T15:55:09.563Z,99503.02
2018-04-23T15:57:37.139Z,99506.30
2018-04-23T16:00:04.754Z,99509.35
2018-04-23T16:02:32.348Z,99503.97
2018-04-23T16:04:59.930Z,99504.75
2018-04-23T16:07:27.540Z,99504.58
2018-04-23T16:09:55.135Z,99509.03
2018-04-23T16:12:22.724Z,99507.88
2018-04-23T16:14:50.338Z,99510.75
2018-04-23T16:17:17.911Z,99515.73
2018-04-23T16:19:45.488Z,99512.08
2018-04-23T16:22:13.090Z,99519.30
2018-04-23T16:24:40.675Z,99514.87
2018-04-23T16:27:08.262Z,99515.72
2018-04-23T16:29:35.883Z,99515.88
2018-04-23T16:32:03.462Z,99519.20
2018-04-23T16:34:31.055Z,99520.59
2018-04-23T16:36:58.664Z,99523.81
2018-04-23T16:39:26.249Z,99524.17
2018-04-23T16:41:53.831Z,99525.77
2018-04-23T16:44:27.165Z,99520.93
2018-04-23T16:46:49.076Z,99531.12
2018-04-23T16:49:16.698Z,99524.96
2018-04-23T16:51:44.318Z,99531.59
2018-04-23T16:54:13.434Z,99526.36
2018-04-23T16:56:41.030Z,99534.31
2018-04-23T16:59:08.667Z,99533.05
2018-04-23T17:01:36.240Z,99542.75
2018-04-23T17:04:03.804Z,99540.12
2018-04-23T17:06:31.414Z,99543.13
2018-04-23T17:08:58.991Z,99546.56
2018-04-23T17:11:26.601Z,99545.83
2018-04-23T17:13:54.180Z,99550.23
2018-04-23T17:16:21.800Z,99548.55
2018-04-23T17:18:49.387Z,99553.52
2018-04-23T17:21:16.974Z,99556.79
2018-04-23T17:23:44.622Z,99559.55
2018-04-23T17:26:12.319Z,99557.56
2018-04-23T17:28:39.891Z,99555.56
2018-04-23T17:31:08.415Z,99560.33
2018-04-23T17:33:36.013Z,99572.45
2018-04-23T17:36:03.590Z,99571.97
2018-04-23T17:38:31.205Z,99576.22
2018-04-23T17:40:58.784Z,99588.38
2018-04-23T17:43:26.369Z,99586.61
2018-04-23T17:45:53.988Z,99590.30
2018-04-23T17:48:21.588Z,99594.63
2018-04-23T17:50:49.163Z,99597.23
2018-04-23T17:53:16.774Z,99597.97
2018-04-23T17:55:44.353Z,99601.17
2018-04-23T17:58:11.936Z,99603.77
2018-04-23T18:00:39.598Z,99611.16
2018-04-23T18:03:07.167Z,99610.95
2018-04-23T18:05:34.738Z,99610.13
2018-04-23T18:08:02.349Z,99618.22
2018-04-23T18:10:29.944Z,99614.58
2018-04-23T18:12:57.529Z,99621.95
2018-04-23T18:15:25.161Z,99626.34
2018-04-23T18:17:52.797Z,99627.56
2018-04-23T18:20:20.385Z,99620.53
2018-04-23T18:22:48.006Z,99633.66
2018-04-23T18:25:15.588Z,99630.69
2018-04-23T18:27:43.163Z,99636.66
2018-04-23T18:30:10.785Z,99641.41
2018-04-23T18:32:38.364Z,99643.13
2018-04-23T18:35:05.998Z,99646.09
2018-04-23T18:37:33.633Z,99643.94
2018-04-23T18:40:01.225Z,99649.09
2018-04-23T18:42:28.804Z,99646.61
2018-04-23T18:44:56.401Z,99642.66
2018-04-23T18:47:23.978Z,99650.53
2018-04-23T18:49:51.574Z,99649.44
2018-04-23T18:52:19.189Z,99649.05
2018-04-23T18:54:46.774Z,99650.94
2018-04-23T18:57:14.349Z,99655.25
2018-04-23T18:59:41.956Z,99660.91
2018-04-23T19:02:09.645Z,99665.48
2018-04-23T19:04:37.264Z,99666.09
2018-04-23T19:07:04.887Z,99659.15
2018-04-23T19:09:32.486Z,99665.91
2018-04-23T19:12:00.104Z,99664.12
2018-04-23T19:14:27.728Z,99669.36
2018-04-23T19:16:55.316Z,99664.43
2018-04-23T19:19:22.905Z,99665.70
2018-04-23T19:21:50.543Z,99676.34
2018-04-23T19:24:18.176Z,99675.19
2018-04-23T19:26:45.771Z,99679.66
2018-04-23T19:29:13.390Z,99672.50
2018-04-23T19:31:40.974Z,99670.88
2018-04-23T19:34:08.596Z,99672.58
2018-04-23T19:36:36.196Z,99678.80
2018-04-23T19:39:03.865Z,99677.17
2018-04-23T19:41:31.434Z,99671.10
2018-04-23T19:43:59.050Z,99673.55
2018-04-23T19:46:26.634Z,99675.31
2018-04-23T19:48:54.206Z,99674.70
2018-04-23T19:51:21.842Z,99684.89
2018-04-23T19:53:49.413Z,99686.36
2018-04-23T19:56:16.997Z,99683.53
2018-04-23T19:58:44.615Z,99684.73
2018-04-23T20:01:12.196Z,99688.34
2018-04-23T20:03:39.760Z,99685.98
2018-04-23T20:06:07.352Z,99688.47
2018-04-23T20:08:34.934Z,99689.19
2018-04-23T20:11:02.516Z,99695.63
2018-04-23T20:13:30.421Z,99689.27
2018-04-23T20:15:57.988Z,99688.72
2018-04-23T20:18:25.555Z,99692.73
2018-04-23T20:20:53.172Z,99686.46
2018-04-23T20:23:20.805Z,99688.08
2018-04-23T20:25:48.394Z,99690.63
2018-04-23T20:28:16.013Z,99687.15
2018-04-23T20:30:43.586Z,99688.63
2018-04-23T20:33:11.160Z,99694.89
2018-04-23T20:35:38.871Z,99686.48
2018-04-23T20:38:06.700Z,99690.34
2018-04-23T20:40:34.263Z,99693.11
2018-04-23T20:43:02.021Z,99691.73
2018-04-23T20:45:29.583Z,99692.95
2018-04-23T20:47:57.154Z,99690.66
2018-04-23T20:50:24.804Z,99691.98
2018-04-23T20:52:52.386Z,99699.69
2018-04-23T20:55:19.969Z,99698.98
2018-04-23T20:57:47.600Z,99698.53
2018-04-23T21:00:15.169Z,99704.93
2018-04-23T21:02:42.755Z,99699.69
2018-04-23T21:05:10.376Z,99706.28
2018-04-23T21:07:37.951Z,99705.47
2018-04-23T21:10:05.695Z,99708.70
2018-04-23T21:12:33.316Z,99706.06
2018-04-23T21:15:00.887Z,99708.26
2018-04-23T21:17:28.662Z,99701.52
2018-04-23T21:19:56.264Z,99709.68
2018-04-23T21:22:24.253Z,99706.77
2018-04-23T21:24:52.208Z,99708.16
2018-04-23T21:27:19.931Z,99707.34
2018-04-23T21:29:47.593Z,99713.22
2018-04-23T21:32:15.172Z,99714.69
2018-04-23T21:34:42.787Z,99710.92
2018-04-23T21:37:10.585Z,99718.50
2018-04-23T21:39:38.253Z,99724.22
2018-04-23T21:42:05.862Z,99728.81
2018-04-23T21:44:33.440Z,99734.64
2018-04-23T21:47:01.017Z,99732.56
2018-04-23T21:49:28.701Z,99737.55
2018-04-23T21:51:56.352Z,99733.06
2018-04-23T21:54:24.027Z,99730.19
2018-04-23T21:56:51.668Z,99736.11
2018-04-23T21:59:19.218Z,99732.31
2018-04-23T22:01:46.792Z,99739.38
2018-04-23T22:04:14.400Z,99737.05
2018-04-23T22:06:41.984Z,99734.16
2018-04-23T22:09:09.781Z,99735.17
2018-04-23T22:11:37.362Z,99737.20
2018-04-23T22:14:04.982Z,99734.19
2018-04-23T22:16:32.774Z,99736.13
2018-04-23T22:19:00.418Z,99738.69
2018-04-23T22:21:27.983Z,99738.91
2018-04-23T22:23:55.549Z,99741.35
2018-04-23T22:26:23.164Z,99740.06
2018-04-23T22:28:50.734Z,99743.26
2018-04-23T22:31:18.535Z,99737.64
2018-04-23T22:33:46.127Z,99739.30
2018-04-23T22:36:13.699Z,99744.25
2018-04-23T22:38:41.328Z,99735.96
2018-04-23T22:41:08.985Z,99743.61
2018-04-23T22:43:36.567Z,99740.30
2018-04-23T22:46:04.154Z,99740.00
2018-04-23T22:48:31.778Z,99741.31
2018-04-23T22:50:59.351Z,99740.23
2018-04-23T22:53:26.932Z,99746.26
2018-04-23T22:55:54.557Z,99740.59
2018-04-23T22:58:22.178Z,99742.75
2018-04-23T23:00:49.760Z,99742.16
2018-04-23T23:03:17.408Z,99744.20
2018-04-23T23:05:45.001Z,99739.28
2018-04-23T23:08:12.580Z,99735.69
2018-04-23T23:10:40.212Z,99742.73
2018-04-23T23:13:07.786Z,99738.20
2018-04-23T23:15:35.374Z,99735.25
2018-04-23T23:18:02.970Z,99733.47
2018-04-23T23:20:30.543Z,99732.83
2018-04-23T23:22:58.125Z,99732.88
2018-04-23T23:25:25.875Z,99729.53
2018-04-23T23:27:53.460Z,99733.00
2018-04-23T23:30:21.191Z,99734.48
2018-04-23T23:32:48.818Z,99732.82
2018-04-23T23:35:16.408Z,99736.00
2018-04-23T23:37:44.046Z,99733.33
2018-04-23T23:40:11.664Z,99730.34
2018-04-23T23:42:39.256Z,99730.69
2018-04-23T23:45:06.845Z,99730.03
2018-04-23T23:47:34.472Z,99723.70
2018-04-23T23:50:02.081Z,99719.23
2018-04-23T23:52:29.660Z,99721.58
2018-04-23T23:54:57.286Z,99721.32
2018-04-23T23:57:24.867Z,99718.13
2018-04-23T23:59:52.544Z,99717.52
